Time;durP1;ratioP1;P1;durP2;ratioP2;P2;SDS_P1;SDS_P2;PMS_P1;PMS_P2;Temp;Humidity;BMP_temperature;BMP_pressure;BME280_temperature;BME280_humidity;BME280_pressure;Samples;Min_cycle;Max_cycle;Signal;HPM_P1;HPM_P2
2023/03/21 00:00:56;;;;;;;7.70;3.90;;;10.60;99.90;;;;;;4945524;29;20031;-70
2023/03/21 00:03:22;;;;;;;5.72;3.58;;;10.60;99.90;;;;;;4945933;29;20043;-71
2023/03/21 00:05:50;;;;;;;7.13;3.72;;;10.60;99.90;;;;;;4945917;29;20032;-71
2023/03/21 00:08:16;;;;;;;;;;;10.60;99.90;;;;;;4946477;29;20364;-72
2023/03/21 00:10:42;;;;;;;7.53;3.10;;;10.60;99.90;;;;;;4945426;29;20082;-71
2023/03/21 00:13:08;;;;;;;7.13;3.38;;;10.50;99.90;;;;;;4945266;29;20100;-72
2023/03/21 00:15:37;;;;;;;4.93;3.05;;;10.60;99.90;;;;;;4945338;29;20310;-72
2023/03/21 00:18:10;;;;;;;7.05;3.30;;;10.60;99.90;;;;;;4945301;29;20070;-71
2023/03/21 00:20:36;;;;;;;6.65;2.92;;;10.60;99.90;;;;;;4945653;29;20042;-71
2023/03/21 00:23:03;;;;;;;5.90;2.78;;;10.70;99.90;;;;;;4945048;29;20067;-72
2023/03/21 00:25:31;;;;;;;6.88;3.05;;;10.70;99.90;;;;;;4945227;29;20071;-72
2023/03/21 00:27:57;;;;;;;6.47;3.63;;;10.80;99.90;;;;;;4944806;29;20059;-73
2023/03/21 00:30:23;;;;;;;7.78;4.05;;;10.80;99.90;;;;;;4945417;29;20310;-73
2023/03/21 00:32:49;;;;;;;6.47;3.63;;;10.80;99.90;;;;;;4945457;29;20032;-74
2023/03/21 00:35:15;;;;;;;6.80;4.20;;;10.80;99.90;;;;;;4944861;29;20066;-72
2023/03/21 00:37:41;;;;;;;7.13;4.10;;;10.80;99.90;;;;;;4945134;29;20039;-72
2023/03/21 00:40:10;;;;;;;5.25;3.08;;;10.80;99.90;;;;;;4927787;29;20255;-72
2023/03/21 00:42:36;;;;;;;6.45;3.78;;;10.70;99.90;;;;;;4945123;29;20032;-72
2023/03/21 00:45:05;;;;;;;6.68;3.60;;;10.80;99.90;;;;;;4944773;29;20273;-71
2023/03/21 00:47:31;;;;;;;6.10;3.20;;;10.80;99.90;;;;;;4945038;29;20079;-71
2023/03/21 00:49:57;;;;;;;7.45;3.53;;;10.70;99.90;;;;;;4944663;29;20035;-71
2023/03/21 00:52:22;;;;;;;6.60;3.10;;;10.70;99.90;;;;;;4944896;29;20028;-72
2023/03/21 00:54:50;;;;;;;6.03;3.57;;;10.70;99.90;;;;;;4945126;29;20039;-72
2023/03/21 00:57:17;;;;;;;5.30;3.00;;;10.60;99.90;;;;;;4943727;29;20042;-73
2023/03/21 00:59:43;;;;;;;7.25;2.75;;;10.60;99.90;;;;;;4945130;29;20083;-71
2023/03/21 06:03:43;;;;;;;6.65;3.70;;;9.40;99.90;;;;;;4927742;29;20293;-72
2023/03/21 06:06:14;;;;;;;4.90;3.20;;;9.40;99.90;;;;;;4945863;29;20309;-71
2023/03/21 06:08:51;;;;;;;6.63;3.28;;;9.50;99.90;;;;;;4930251;29;20048;-71
2023/03/21 06:11:30;;;;;;;5.57;3.17;;;9.60;99.90;;;;;;4936717;29;20147;-71
2023/03/21 06:14:15;;;;;;;7.17;3.70;;;9.70;99.90;;;;;;4947687;29;20079;-71
2023/03/21 06:16:42;;;;;;;6.97;3.77;;;9.60;99.90;;;;;;4946816;29;20443;-72
2023/03/21 06:19:08;;;;;;;8.50;4.57;;;9.60;99.90;;;;;;4939462;29;20032;-72
2023/03/21 06:21:59;;;;;;;9.88;4.03;;;9.70;99.90;;;;;;4946491;29;20066;-73
2023/03/21 06:24:26;;;;;;;6.50;4.10;;;9.70;99.90;;;;;;4946057;29;20040;-72
2023/03/21 06:26:52;;;;;;;7.80;3.95;;;9.70;99.90;;;;;;4947786;29;20103;-73
2023/03/21 06:29:18;;;;;;;7.88;4.00;;;9.70;99.90;;;;;;4946388;29;20212;-73
2023/03/21 06:31:47;;;;;;;9.10;4.15;;;9.60;99.90;;;;;;4946723;29;20031;-74
2023/03/21 06:34:14;;;;;;;7.95;3.65;;;9.60;99.90;;;;;;4946020;29;20028;-71
2023/03/21 06:36:40;;;;;;;8.45;4.00;;;9.60;99.90;;;;;;4942451;29;20069;-72
2023/03/21 06:39:07;;;;;;;8.52;4.18;;;9.60;99.90;;;;;;4946362;29;20043;-71
2023/03/21 06:41:36;;;;;;;9.88;4.53;;;9.60;99.90;;;;;;4946178;29;20024;-71
2023/03/21 06:44:03;;;;;;;10.10;4.63;;;9.60;99.90;;;;;;4946090;29;20058;-72
2023/03/21 06:46:34;;;;;;;8.75;4.30;;;9.50;99.90;;;;;;4946100;29;20071;-72
2023/03/21 06:49:00;;;;;;;10.05;4.57;;;9.60;99.90;;;;;;4946359;29;20031;-72
2023/03/21 06:51:28;;;;;;;12.25;5.35;;;9.60;99.90;;;;;;4945577;29;20071;-74
2023/03/21 06:54:04;;;;;;;12.18;5.50;;;9.50;99.90;;;;;;4945505;29;20045;-73
2023/03/21 06:56:38;;;;;;;11.85;5.05;;;9.50;99.90;;;;;;4946548;29;20050;-72
2023/03/21 06:59:04;;;;;;;9.93;4.75;;;9.60;99.90;;;;;;4920387;29;20317;-76
2023/03/21 07:01:46;;;;;;;11.02;4.38;;;9.60;99.90;;;;;;4944559;29;20036;-72
2023/03/21 07:04:12;;;;;;;8.73;4.13;;;9.50;99.90;;;;;;4930027;29;20059;-72
2023/03/21 07:06:38;;;;;;;8.43;4.50;;;9.50;99.90;;;;;;4929739;29;20094;-72
2023/03/21 07:09:04;;;;;;;10.63;3.83;;;9.60;99.90;;;;;;4929949;29;20317;-72
2023/03/21 07:11:33;;;;;;;9.88;4.63;;;9.70;99.90;;;;;;4957754;29;20027;-73
2023/03/21 07:14:00;;;;;;;8.25;3.92;;;9.70;99.90;;;;;;4947395;29;20027;-72
2023/03/21 07:16:26;;;;;;;8.65;4.18;;;9.80;99.90;;;;;;4929412;29;20225;-73
2023/03/21 07:18:52;;;;;;;9.23;3.95;;;9.90;99.90;;;;;;4946572;29;20035;-73
2023/03/21 07:21:17;;;;;;;7.72;4.38;;;10.10;99.90;;;;;;4929096;29;20036;-73
2023/03/21 07:23:43;;;;;;;9.52;4.35;;;10.30;99.90;;;;;;4927112;29;20034;-73
2023/03/21 07:26:09;;;;;;;6.63;3.67;;;10.40;99.90;;;;;;4926172;29;20031;-73
2023/03/21 07:28:35;;;;;;;7.82;3.72;;;10.50;99.90;;;;;;4940411;29;20412;-73
2023/03/21 07:31:05;;;;;;;9.48;4.50;;;10.60;99.90;;;;;;4929516;29;20031;-73
2023/03/21 07:33:32;;;;;;;7.05;4.18;;;10.60;99.90;;;;;;4928807;29;20314;-72
2023/03/21 07:36:00;;;;;;;;;;;10.60;99.90;;;;;;4929777;29;20031;-73
2023/03/21 07:38:26;;;;;;;9.48;4.43;;;10.60;99.90;;;;;;4944761;29;20188;-73
2023/03/21 07:40:53;;;;;;;9.35;4.07;;;10.70;99.90;;;;;;4949433;29;20087;-73
2023/03/21 07:43:19;;;;;;;11.07;5.03;;;10.80;99.90;;;;;;4928619;29;20032;-74
2023/03/21 07:45:45;;;;;;;6.78;3.70;;;10.80;99.90;;;;;;4945031;29;20020;-72
2023/03/21 07:48:13;;;;;;;9.27;4.70;;;11.00;99.90;;;;;;4929412;29;20030;-73
2023/03/21 07:50:39;;;;;;;8.10;3.65;;;11.20;99.90;;;;;;4928822;29;20027;-72
2023/03/21 07:53:06;;;;;;;9.95;4.00;;;11.30;99.90;;;;;;4946208;29;20035;-73
2023/03/21 07:55:35;;;;;;;10.77;3.90;;;11.50;99.90;;;;;;4945576;29;20257;-71
2023/03/21 07:58:02;;;;;;;7.97;3.70;;;11.60;99.90;;;;;;4945762;29;20055;-73
2023/03/21 08:00:27;;;;;;;6.72;3.95;;;11.80;99.90;;;;;;4945378;29;20325;-72
2023/03/21 08:02:55;;;;;;;6.35;3.72;;;12.00;99.90;;;;;;4947136;29;20059;-71
2023/03/21 08:05:22;;;;;;;9.68;3.50;;;12.10;99.90;;;;;;4954123;29;20023;-71
2023/03/21 08:07:49;;;;;;;7.90;3.90;;;12.30;99.90;;;;;;4945656;29;20094;-70
2023/03/21 08:10:16;;;;;;;7.03;4.00;;;12.30;99.90;;;;;;4945958;29;20432;-73
2023/03/21 08:12:41;;;;;;;10.43;4.70;;;12.30;99.90;;;;;;4945455;29;20078;-72
2023/03/21 08:15:08;;;;;;;6.85;4.25;;;12.30;99.90;;;;;;4945736;29;20059;-72
2023/03/21 08:17:36;;;;;;;10.38;4.18;;;12.40;99.90;;;;;;4944932;29;20216;-72
2023/03/21 08:20:07;;;;;;;10.73;4.40;;;12.50;99.90;;;;;;4945819;29;20047;-71
2023/03/21 08:22:33;;;;;;;8.82;3.78;;;12.60;99.90;;;;;;4945078;29;20106;-72
2023/03/21 08:24:58;;;;;;;12.07;4.75;;;12.70;99.90;;;;;;4945498;29;20035;-72
2023/03/21 08:27:24;;;;;;;11.00;4.18;;;12.70;99.90;;;;;;4944069;29;20051;-73
2023/03/21 08:29:50;;;;;;;8.00;3.47;;;12.80;99.90;;;;;;4945386;29;20035;-71
2023/03/21 08:32:18;;;;;;;7.50;3.70;;;13.00;99.90;;;;;;4945312;29;20032;-72
2023/03/21 08:34:44;;;;;;;7.40;3.30;;;13.10;99.40;;;;;;4947990;29;20090;-71
2023/03/21 08:37:10;;;;;;;8.20;3.85;;;13.20;99.40;;;;;;4946982;29;20233;-72
2023/03/21 08:39:35;;;;;;;8.30;4.03;;;13.20;98.80;;;;;;4943691;29;20058;-72
2023/03/21 08:42:01;;;;;;;5.25;3.30;;;13.40;98.60;;;;;;4945399;29;20131;-71
2023/03/21 08:44:27;;;;;;;6.97;3.17;;;13.50;98.20;;;;;;4944636;29;20253;-72
2023/03/21 08:46:53;;;;;;;12.15;3.47;;;13.70;98.10;;;;;;4944946;29;20079;-71
2023/03/21 08:49:18;;;;;;;8.02;2.92;;;13.90;97.50;;;;;;4945095;29;20360;-72
2023/03/21 08:51:44;;;;;;;7.80;3.30;;;14.00;97.30;;;;;;4944721;29;20091;-71
2023/03/21 08:54:19;;;;;;;6.13;3.00;;;14.20;97.00;;;;;;4951915;29;20036;-71
2023/03/21 08:56:44;;;;;;;6.90;3.08;;;14.30;96.50;;;;;;4944105;29;20210;-70
2023/03/21 08:59:10;;;;;;;6.47;2.85;;;14.40;95.90;;;;;;4950840;29;20027;-71
2023/03/21 09:01:36;;;;;;;5.88;2.95;;;14.60;95.30;;;;;;4944074;29;20047;-70
2023/03/21 09:04:03;;;;;;;5.85;3.10;;;14.50;94.90;;;;;;4944526;29;20043;-72
2023/03/21 09:06:29;;;;;;;6.45;2.65;;;14.60;94.60;;;;;;4944294;29;20028;-71
2023/03/21 09:08:55;;;;;;;6.88;2.83;;;14.60;94.90;;;;;;4944445;29;20048;-72
2023/03/21 09:11:21;;;;;;;11.07;2.70;;;14.80;94.10;;;;;;4944368;29;20039;-73
2023/03/21 09:13:47;;;;;;;4.25;2.70;;;14.90;93.90;;;;;;4944454;29;20198;-72
2023/03/21 09:16:13;;;;;;;5.88;2.60;;;15.00;93.50;;;;;;4944871;29;20063;-72
2023/03/21 09:18:47;;;;;;;6.07;2.97;;;15.10;93.50;;;;;;4943454;29;20050;-72
2023/03/21 09:21:15;;;;;;;7.95;2.42;;;15.20;93.40;;;;;;4944628;29;20043;-73
2023/03/21 09:23:41;;;;;;;6.57;2.75;;;15.30;92.90;;;;;;4927346;29;20090;-71
2023/03/21 09:26:08;;;;;;;8.25;2.50;;;15.40;92.50;;;;;;4941627;29;20055;-74
2023/03/21 09:28:37;;;;;;;7.47;2.75;;;15.50;92.30;;;;;;4944180;29;20079;-71
2023/03/21 09:31:04;;;;;;;5.75;2.30;;;15.50;91.70;;;;;;4927279;29;20036;-71
2023/03/21 09:33:30;;;;;;;4.32;2.25;;;15.50;91.70;;;;;;4944081;29;20043;-73
2023/03/21 09:35:59;;;;;;;4.78;2.50;;;15.70;91.90;;;;;;4944146;29;20032;-74
2023/03/21 09:38:29;;;;;;;3.55;1.80;;;16.00;91.50;;;;;;4943903;29;20071;-70
2023/03/21 09:41:22;;;;;;;2.72;1.60;;;16.10;90.50;;;;;;4944516;29;20094;-72
2023/03/21 09:44:04;;;;;;;3.33;1.98;;;16.20;89.30;;;;;;4944094;29;20221;-71
2023/03/21 09:46:56;;;;;;;5.22;2.45;;;16.30;90.20;;;;;;4944736;29;20324;-72
2023/03/21 09:49:30;;;;;;;5.10;2.00;;;16.40;89.40;;;;;;4929253;29;20059;-73
2023/03/21 09:52:05;;;;;;;5.95;2.05;;;16.50;87.90;;;;;;4943970;29;20035;-75
2023/03/21 09:54:43;;;;;;;4.60;1.92;;;16.70;87.30;;;;;;4943781;29;20341;-72
2023/03/21 09:57:27;;;;;;;5.22;1.92;;;16.90;85.40;;;;;;4944049;29;20059;-72
2023/03/21 09:59:55;;;;;;;7.82;2.17;;;17.20;85.70;;;;;;4943854;29;20035;-75
2023/03/21 10:02:38;;;;;;;4.07;1.98;;;17.50;84.50;;;;;;4943541;29;20103;-73
2023/03/21 10:05:16;;;;;;;5.18;2.28;;;17.70;83.30;;;;;;4943617;29;20023;-72
2023/03/21 10:07:50;;;;;;;4.88;1.70;;;18.00;83.90;;;;;;4943071;29;20043;-73
2023/03/21 10:10:20;;;;;;;4.57;1.60;;;18.10;82.20;;;;;;4943941;29;20035;-71
2023/03/21 10:12:47;;;;;;;4.78;1.30;;;18.50;80.50;;;;;;4943337;29;20282;-71
2023/03/21 10:15:22;;;;;;;3.47;1.63;;;18.80;79.90;;;;;;4943985;29;20067;-72
2023/03/21 10:18:01;;;;;;;5.65;1.88;;;18.90;79.40;;;;;;4943264;29;20325;-72
2023/03/21 10:20:35;;;;;;;7.10;1.75;;;19.10;79.90;;;;;;4942860;29;20309;-71
2023/03/21 10:23:07;;;;;;;3.40;1.50;;;19.20;77.80;;;;;;4943127;29;20059;-72
2023/03/21 10:25:41;;;;;;;6.00;1.73;;;19.10;78.30;;;;;;4942892;29;20091;-73
2023/03/21 10:28:11;;;;;;;4.47;1.58;;;19.30;78.60;;;;;;4943533;29;20207;-73
2023/03/21 10:30:54;;;;;;;3.90;2.15;;;19.20;77.30;;;;;;4946246;29;20312;-72
2023/03/21 10:33:44;;;;;;;3.13;1.52;;;19.20;77.50;;;;;;4946837;29;20170;-72
2023/03/21 10:36:16;;;;;;;3.55;1.50;;;19.20;77.70;;;;;;4946863;29;20079;-70
2023/03/21 10:38:49;;;;;;;4.72;1.48;;;19.20;76.10;;;;;;4946449;29;20050;-71
2023/03/21 10:41:15;;;;;;;3.90;1.70;;;19.40;77.30;;;;;;4947148;29;20652;-73
2023/03/21 10:43:44;;;;;;;6.32;1.92;;;19.30;76.50;;;;;;4945802;29;20031;-71
2023/03/21 10:46:17;;;;;;;4.88;1.42;;;19.60;77.00;;;;;;4947109;29;20194;-72
2023/03/21 10:48:46;;;;;;;4.35;1.60;;;19.90;76.50;;;;;;4946351;29;20307;-71
2023/03/21 10:51:18;;;;;;;2.58;1.02;;;20.10;75.50;;;;;;4947014;29;20065;-72
2023/03/21 10:53:52;;;;;;;3.72;1.50;;;20.30;74.20;;;;;;4946290;29;20059;-71
2023/03/21 10:56:30;;;;;;;4.43;1.50;;;20.30;73.60;;;;;;4947218;29;20031;-72
2023/03/21 10:58:59;;;;;;;5.03;1.17;;;20.50;73.50;;;;;;4945563;29;20237;-71
2023/03/21 11:01:40;;;;;;;4.75;1.50;;;20.50;72.60;;;;;;4946181;29;20047;-72
2023/03/21 11:04:13;;;;;;;8.38;1.08;;;20.30;72.30;;;;;;4946751;29;20078;-72
2023/03/21 11:06:41;;;;;;;15.48;1.52;;;20.60;72.30;;;;;;4946498;29;20023;-72
2023/03/21 11:09:14;;;;;;;3.55;1.33;;;20.90;72.20;;;;;;4946754;29;20358;-72
2023/03/21 11:11:52;;;;;;;3.47;1.00;;;21.00;71.10;;;;;;4944828;29;20095;-73
2023/03/21 11:14:31;;;;;;;2.47;1.13;;;21.00;70.00;;;;;;4946540;29;20043;-72
2023/03/21 11:16:57;;;;;;;3.47;1.30;;;20.70;71.40;;;;;;4946435;29;20044;-73
2023/03/21 11:19:31;;;;;;;1.80;0.80;;;20.70;70.60;;;;;;4929677;29;20067;-72
2023/03/21 11:21:58;;;;;;;2.30;0.68;;;20.30;69.00;;;;;;4946431;29;20046;-72
2023/03/21 11:24:28;;;;;;;1.52;0.70;;;20.50;67.90;;;;;;4946728;29;20302;-74
2023/03/21 11:26:56;;;;;;;2.72;0.80;;;20.50;69.60;;;;;;4946098;29;20039;-74
2023/03/21 11:29:40;;;;;;;3.55;1.10;;;20.60;69.60;;;;;;4946212;29;20027;-69
2023/03/21 11:32:22;;;;;;;3.03;1.20;;;21.10;69.30;;;;;;4946134;29;20039;-72
2023/03/21 11:35:02;;;;;;;4.43;1.25;;;21.00;69.40;;;;;;4945437;29;20036;-75
2023/03/21 11:37:35;;;;;;;2.58;1.30;;;20.70;69.50;;;;;;4945783;29;20091;-73
2023/03/21 11:40:22;;;;;;;3.05;1.08;;;20.70;70.20;;;;;;4945623;29;20111;-72
2023/03/21 11:42:53;;;;;;;2.33;1.02;;;21.00;70.00;;;;;;4945280;29;20525;-74
2023/03/21 11:45:20;;;;;;;4.80;1.20;;;21.10;69.00;;;;;;4944579;29;20035;-74
2023/03/21 11:47:48;;;;;;;3.40;1.20;;;21.10;68.80;;;;;;4945205;29;20103;-72
2023/03/21 11:50:36;;;;;;;2.55;1.08;;;21.20;69.40;;;;;;4945147;29;20016;-74
2023/03/21 11:53:12;;;;;;;3.72;1.23;;;20.80;68.20;;;;;;4944395;29;20103;-73
2023/03/21 11:55:52;;;;;;;2.67;1.08;;;20.50;68.80;;;;;;4943730;29;20035;-72
2023/03/21 11:58:27;;;;;;;2.58;0.75;;;20.70;71.20;;;;;;4943784;29;20062;-72
2023/03/21 12:01:02;;;;;;;3.65;0.90;;;20.20;68.50;;;;;;4943661;29;20043;-73
2023/03/21 12:04:07;;;;;;;2.97;0.98;;;20.20;68.50;;;;;;4944492;29;20071;-72
2023/03/21 12:07:00;;;;;;;1.95;1.10;;;20.40;68.90;;;;;;4918248;29;20036;-73
2023/03/21 12:10:00;;;;;;;3.60;1.75;;;20.50;68.80;;;;;;4944838;29;20067;-74
2023/03/21 12:12:48;;;;;;;3.05;1.42;;;20.60;68.90;;;;;;4943951;29;20039;-71
2023/03/21 12:15:26;;;;;;;4.30;1.65;;;20.50;69.50;;;;;;4943763;29;20039;-73
2023/03/21 12:18:01;;;;;;;3.75;1.65;;;20.20;70.60;;;;;;4944439;29;20094;-73
2023/03/21 12:20:45;;;;;;;3.65;1.80;;;20.20;70.20;;;;;;4945153;29;20286;-73
2023/03/21 12:23:35;;;;;;;4.85;1.73;;;20.20;70.10;;;;;;4945028;29;20035;-72
2023/03/21 12:26:26;;;;;;;4.65;1.90;;;20.00;71.00;;;;;;4944818;29;20062;-74
2023/03/21 12:29:11;;;;;;;6.63;1.48;;;19.80;71.70;;;;;;4943108;29;20048;-71
2023/03/21 12:31:43;;;;;;;4.22;1.83;;;19.70;72.00;;;;;;4944034;29;20104;-73
2023/03/21 12:34:44;;;;;;;5.90;1.73;;;19.60;71.40;;;;;;4944385;29;20035;-74
2023/03/21 12:37:51;;;;;;;4.78;1.75;;;19.50;71.50;;;;;;4892357;29;20048;-73
2023/03/21 12:40:42;;;;;;;5.63;1.80;;;19.60;71.40;;;;;;4943387;29;20036;-73
2023/03/21 12:43:52;;;;;;;6.10;1.77;;;19.60;71.30;;;;;;4942838;29;20464;-75
2023/03/21 12:46:38;;;;;;;5.00;1.73;;;19.90;71.00;;;;;;4885072;29;20029;-72
2023/03/21 12:49:17;;;;;;;3.85;1.80;;;20.20;70.10;;;;;;4928690;29;20063;-74
2023/03/21 12:51:47;;;;;;;5.43;2.25;;;20.30;70.70;;;;;;4938374;29;20087;-73
2023/03/21 12:54:30;;;;;;;4.43;1.67;;;20.50;69.80;;;;;;4943457;29;20051;-72
2023/03/21 12:57:01;;;;;;;5.18;1.95;;;20.80;69.10;;;;;;4942838;29;20088;-73
2023/03/21 12:59:41;;;;;;;3.88;1.98;;;20.80;69.30;;;;;;4943239;29;20036;-73
2023/03/21 13:02:30;;;;;;;3.80;1.65;;;21.20;68.50;;;;;;4943057;29;20195;-73
2023/03/21 13:05:16;;;;;;;3.30;1.33;;;21.40;67.50;;;;;;4942579;29;20321;-74
2023/03/21 13:07:46;;;;;;;2.85;1.42;;;21.70;66.70;;;;;;4941614;29;20119;-74
2023/03/21 13:10:15;;;;;;;3.47;1.80;;;22.20;66.50;;;;;;4943147;29;20070;-73
2023/03/21 13:12:57;;;;;;;4.40;1.65;;;22.60;65.80;;;;;;4942719;29;20086;-73
2023/03/21 13:15:38;;;;;;;3.75;2.00;;;23.30;65.30;;;;;;4944553;29;20751;-74
2023/03/21 13:18:33;;;;;;;3.33;1.70;;;23.10;63.90;;;;;;4944206;29;20048;-74
2023/03/21 13:21:19;;;;;;;5.57;1.65;;;23.10;64.50;;;;;;4936445;29;20218;-74
2023/03/21 13:24:17;;;;;;;3.58;1.77;;;23.00;64.80;;;;;;4943572;29;20039;-73
2023/03/21 13:26:50;;;;;;;5.47;1.80;;;22.50;65.10;;;;;;4939781;29;20198;-72
2023/03/21 13:29:32;;;;;;;4.38;1.50;;;22.30;65.40;;;;;;4944262;29;20059;-74
2023/03/21 13:32:08;;;;;;;4.97;1.45;;;22.10;66.70;;;;;;4944477;29;20040;-75
2023/03/21 13:34:34;;;;;;;5.50;1.92;;;21.90;66.20;;;;;;4943620;29;20040;-75
2023/03/21 13:37:00;;;;;;;2.97;1.35;;;21.90;66.60;;;;;;4944306;29;20242;-73
2023/03/21 13:39:28;;;;;;;5.18;1.83;;;21.70;65.90;;;;;;4944116;29;20209;-74
2023/03/21 13:41:54;;;;;;;5.37;1.60;;;21.70;66.40;;;;;;4943986;29;20135;-76
2023/03/21 13:44:38;;;;;;;3.42;1.38;;;21.50;66.00;;;;;;4944028;29;20325;-73
2023/03/21 13:47:23;;;;;;;5.57;1.55;;;21.40;66.00;;;;;;4944006;29;20336;-74
2023/03/21 13:50:17;;;;;;;2.88;1.45;;;21.30;66.30;;;;;;4943680;29;20032;-75
2023/03/21 13:53:18;;;;;;;3.45;1.33;;;21.00;67.00;;;;;;4943638;29;20035;-74
2023/03/21 13:55:48;;;;;;;3.72;1.40;;;20.80;66.70;;;;;;4927020;29;20075;-74
2023/03/21 13:58:49;;;;;;;3.63;1.48;;;20.80;67.10;;;;;;4944258;29;20079;-75
2023/03/21 14:01:25;;;;;;;4.40;1.88;;;20.60;67.90;;;;;;4944783;29;20091;-74
2023/03/21 14:04:05;;;;;;;4.70;1.70;;;20.50;69.30;;;;;;4944625;29;20035;-71
2023/03/21 14:06:54;;;;;;;6.05;1.80;;;20.30;68.50;;;;;;4948112;29;20092;-73
2023/03/21 14:09:30;;;;;;;6.25;2.00;;;20.20;69.70;;;;;;4948012;29;20040;-71
2023/03/21 14:11:56;;;;;;;4.18;1.75;;;20.00;69.80;;;;;;4930350;29;20119;-72
2023/03/21 14:14:27;;;;;;;3.63;1.60;;;20.00;70.10;;;;;;4947666;29;20329;-72
2023/03/21 14:16:53;;;;;;;5.72;1.40;;;20.00;69.80;;;;;;4947778;29;20368;-71
2023/03/21 14:19:19;;;;;;;4.50;1.60;;;19.90;70.50;;;;;;4947467;29;20054;-74
2023/03/21 14:21:52;;;;;;;5.07;1.38;;;20.00;70.00;;;;;;4947588;29;20257;-71
2023/03/21 14:24:18;;;;;;;4.60;2.08;;;20.00;70.20;;;;;;4947776;29;20111;-72
2023/03/21 14:26:50;;;;;;;4.85;1.85;;;19.90;69.90;;;;;;4947267;29;20260;-71
2023/03/21 14:29:29;;;;;;;5.15;1.85;;;19.90;69.70;;;;;;4947524;29;20230;-72
2023/03/21 14:31:56;;;;;;;13.20;2.10;;;19.90;69.50;;;;;;4946927;29;20059;-72
2023/03/21 14:34:24;;;;;;;5.68;1.52;;;20.20;70.00;;;;;;4947594;29;20119;-72
2023/03/21 14:36:50;;;;;;;;;;;20.40;70.10;;;;;;4947630;29;20028;-71
2023/03/21 14:39:24;;;;;;;4.82;2.22;;;20.60;69.60;;;;;;4947425;29;19974;-77
2023/03/21 14:41:55;;;;;;;4.53;1.92;;;20.60;68.90;;;;;;4929608;29;20095;-71
2023/03/21 14:44:36;;;;;;;5.75;1.95;;;20.40;68.90;;;;;;4947319;29;20182;-71
2023/03/21 14:47:27;;;;;;;4.82;2.05;;;20.40;69.50;;;;;;4947042;29;20063;-74
2023/03/21 14:49:53;;;;;;;4.35;1.90;;;20.50;68.60;;;;;;4946536;29;20027;-70
2023/03/21 14:52:26;;;;;;;5.47;1.90;;;20.70;69.10;;;;;;4930027;29;20317;-70
2023/03/21 14:54:53;;;;;;;5.55;2.00;;;20.70;69.00;;;;;;4946223;29;20047;-71
2023/03/21 14:57:23;;;;;;;3.97;1.80;;;20.90;67.90;;;;;;4947146;29;20195;-71
2023/03/21 14:59:52;;;;;;;4.35;1.73;;;21.10;67.70;;;;;;4946502;29;20031;-71
2023/03/21 15:02:29;;;;;;;;;;;21.10;67.00;;;;;;4930256;29;20262;-71
2023/03/21 15:04:57;;;;;;;3.10;1.35;;;21.10;67.70;;;;;;4946460;29;20371;-72
2023/03/21 15:07:29;;;;;;;3.63;1.80;;;21.40;67.10;;;;;;4947231;29;20044;-72
2023/03/21 15:09:57;;;;;;;4.18;1.65;;;21.40;67.10;;;;;;4946102;29;20103;-71
2023/03/21 15:12:23;;;;;;;3.50;1.92;;;21.40;67.20;;;;;;4946444;29;20050;-72
2023/03/21 15:14:49;;;;;;;3.90;1.77;;;21.30;67.00;;;;;;4945770;29;20028;-71
2023/03/21 15:17:15;;;;;;;5.38;2.20;;;21.40;66.50;;;;;;4942579;29;20225;-72
2023/03/21 15:19:42;;;;;;;4.15;2.10;;;21.70;66.20;;;;;;4942518;29;20039;-72
2023/03/21 15:22:15;;;;;;;5.95;1.80;;;21.90;66.20;;;;;;4933760;29;20043;-72
2023/03/21 15:24:49;;;;;;;6.40;1.92;;;22.20;65.30;;;;;;4943342;29;20035;-72
2023/03/21 15:27:17;;;;;;;6.05;1.92;;;22.30;64.90;;;;;;4932611;29;20051;-72
2023/03/21 15:29:43;;;;;;;;;;;22.40;64.20;;;;;;4946291;29;20089;-71
2023/03/21 15:32:21;;;;;;;5.85;1.70;;;22.60;63.70;;;;;;4946027;29;20013;-70
2023/03/21 15:34:48;;;;;;;5.05;1.73;;;22.90;63.50;;;;;;4943734;29;20055;-73
2023/03/21 15:37:26;;;;;;;7.20;1.95;;;23.00;63.40;;;;;;4946602;29;20309;-72
2023/03/21 15:39:53;;;;;;;3.35;1.30;;;22.40;63.70;;;;;;4945609;29;20332;-71
2023/03/21 15:42:38;;;;;;;4.68;1.70;;;21.90;66.10;;;;;;4946169;29;20047;-72
2023/03/21 15:45:25;;;;;;;4.75;1.45;;;21.70;66.00;;;;;;4933371;29;20262;-71
2023/03/21 15:47:57;;;;;;;6.00;1.50;;;21.60;66.60;;;;;;4946787;29;20313;-71
2023/03/21 15:50:26;;;;;;;3.50;1.33;;;21.00;67.30;;;;;;4946289;29;20044;-70
2023/03/21 15:52:53;;;;;;;4.15;1.45;;;20.50;68.70;;;;;;4942202;29;20171;-70
2023/03/21 15:55:25;;;;;;;4.78;1.63;;;20.00;69.90;;;;;;4945329;29;20041;-71
2023/03/21 15:57:53;;;;;;;5.13;1.77;;;19.50;71.00;;;;;;4942833;29;20078;-70
2023/03/21 16:00:39;;;;;;;5.63;1.90;;;19.20;72.20;;;;;;4929281;29;20055;-71
2023/03/21 16:03:15;;;;;;;4.10;1.60;;;18.80;73.40;;;;;;4945666;29;20063;-71
2023/03/21 16:05:41;;;;;;;5.55;1.90;;;18.60;74.40;;;;;;4945784;29;20036;-70
2023/03/21 16:08:25;;;;;;;8.02;1.80;;;18.30;75.10;;;;;;4945401;29;20039;-73
2023/03/21 16:10:50;;;;;;;6.28;1.50;;;18.10;75.50;;;;;;4945533;29;20154;-71
2023/03/21 16:13:16;;;;;;;7.57;2.45;;;18.00;76.10;;;;;;4946092;29;20028;-72
2023/03/21 16:15:43;;;;;;;4.38;1.67;;;17.90;76.50;;;;;;4945111;29;20027;-73
2023/03/21 16:18:13;;;;;;;5.10;2.08;;;17.80;77.00;;;;;;4945605;29;20341;-73
2023/03/21 16:20:43;;;;;;;3.90;1.98;;;17.70;77.90;;;;;;4945007;29;20039;-73
2023/03/21 16:23:14;;;;;;;5.05;1.85;;;17.60;78.00;;;;;;4928645;29;20331;-71
2023/03/21 16:25:42;;;;;;;4.18;1.63;;;17.40;78.20;;;;;;4945005;29;20046;-71
2023/03/21 16:28:16;;;;;;;8.02;2.05;;;17.30;78.80;;;;;;4945307;29;20075;-72
2023/03/21 16:30:42;;;;;;;3.55;1.45;;;17.10;79.50;;;;;;4945161;29;20286;-74
2023/03/21 16:33:12;;;;;;;4.32;1.70;;;17.00;80.90;;;;;;4928388;29;20042;-74
2023/03/21 16:35:38;;;;;;;3.83;1.85;;;16.90;80.20;;;;;;4945405;29;20032;-74
2023/03/21 16:38:04;;;;;;;3.67;1.85;;;16.80;80.60;;;;;;4945500;29;20048;-75
2023/03/21 16:40:34;;;;;;;3.22;1.38;;;16.70;80.70;;;;;;4945812;29;20213;-74
2023/03/21 16:42:59;;;;;;;4.88;2.13;;;16.70;82.20;;;;;;4944744;29;20090;-73
2023/03/21 16:45:27;;;;;;;6.80;2.30;;;16.50;81.40;;;;;;4945309;29;20419;-73
2023/03/21 16:47:54;;;;;;;4.23;1.73;;;16.40;82.40;;;;;;4944904;29;20031;-71
2023/03/21 16:50:32;;;;;;;4.75;2.00;;;16.40;82.70;;;;;;4945735;29;20432;-73
2023/03/21 16:52:58;;;;;;;4.63;2.08;;;16.30;82.40;;;;;;4945015;29;20325;-72
2023/03/21 16:55:24;;;;;;;3.58;1.67;;;16.20;82.70;;;;;;4945195;29;20063;-72
2023/03/21 16:57:51;;;;;;;3.85;1.85;;;16.00;83.00;;;;;;4944644;29;20218;-73
2023/03/21 17:00:22;;;;;;;5.28;1.63;;;16.00;83.90;;;;;;4944975;29;20094;-73
2023/03/21 17:02:53;;;;;;;5.53;2.20;;;15.90;84.30;;;;;;4944806;29;20066;-72
2023/03/21 17:05:26;;;;;;;3.65;2.00;;;15.90;84.10;;;;;;4954278;29;20042;-73
2023/03/21 17:07:53;;;;;;;7.80;2.00;;;15.80;84.40;;;;;;4947401;29;20043;-72
2023/03/21 17:10:25;;;;;;;6.75;2.55;;;15.70;84.50;;;;;;4945139;29;20038;-72
2023/03/21 17:12:51;;;;;;;6.80;2.58;;;15.60;84.60;;;;;;4944935;29;20040;-73
2023/03/21 17:15:18;;;;;;;5.05;2.53;;;15.50;84.80;;;;;;4945450;29;20309;-73
2023/03/21 17:17:44;;;;;;;5.60;2.53;;;15.40;85.10;;;;;;4946043;29;20217;-73
2023/03/21 17:20:30;;;;;;;6.25;2.47;;;15.30;85.60;;;;;;4945200;29;20257;-74
2023/03/21 17:22:56;;;;;;;7.60;2.35;;;15.30;85.80;;;;;;4944586;29;20088;-72
2023/03/21 17:25:22;;;;;;;5.13;2.05;;;15.30;86.50;;;;;;4945158;29;20051;-73
2023/03/21 17:27:48;;;;;;;8.18;2.88;;;15.30;86.50;;;;;;4944783;29;20046;-73
2023/03/21 17:30:21;;;;;;;6.55;2.97;;;15.20;86.70;;;;;;4945811;29;20095;-74
2023/03/21 17:32:48;;;;;;;8.05;3.15;;;15.10;87.20;;;;;;4944745;29;20213;-73
2023/03/21 17:35:14;;;;;;;6.90;2.70;;;15.00;87.60;;;;;;4945116;29;20067;-72
2023/03/21 17:37:39;;;;;;;6.25;2.40;;;15.00;88.60;;;;;;4944804;29;20043;-72
2023/03/21 17:40:11;;;;;;;8.55;2.63;;;14.90;89.40;;;;;;4945237;29;20062;-72
2023/03/21 17:42:38;;;;;;;6.10;2.30;;;14.90;89.20;;;;;;4945077;29;20036;-72
2023/03/21 17:45:05;;;;;;;7.33;2.70;;;14.80;90.00;;;;;;4944446;29;20024;-72
2023/03/21 17:47:31;;;;;;;5.10;2.55;;;14.80;89.50;;;;;;4928572;29;20225;-72
2023/03/21 17:49:57;;;;;;;5.32;2.55;;;14.80;89.20;;;;;;4945042;29;20024;-71
2023/03/21 17:52:22;;;;;;;4.57;2.45;;;14.80;89.70;;;;;;4945028;29;20373;-72
2023/03/21 17:54:48;;;;;;;6.32;2.63;;;14.80;89.30;;;;;;4944395;29;20031;-75
2023/03/21 17:57:14;;;;;;;5.82;2.80;;;14.70;89.00;;;;;;4945198;29;20043;-72
2023/03/21 17:59:40;;;;;;;7.80;2.78;;;14.70;89.50;;;;;;4945024;29;20063;-72
2023/03/21 18:02:06;;;;;;;5.15;2.08;;;14.70;89.70;;;;;;4944644;29;20321;-72
2023/03/21 18:04:31;;;;;;;6.00;2.42;;;14.70;90.50;;;;;;4944280;29;20058;-73
2023/03/21 18:06:59;;;;;;;5.90;2.60;;;14.70;89.90;;;;;;4944005;29;20036;-74
2023/03/21 18:09:25;;;;;;;3.85;1.75;;;14.70;90.10;;;;;;4944144;29;20046;-71
2023/03/21 18:11:51;;;;;;;4.18;1.90;;;14.70;90.30;;;;;;4943848;29;20035;-72
2023/03/21 18:14:19;;;;;;;5.03;2.08;;;14.60;90.20;;;;;;4944344;29;20035;-72